Airfield :
LOGIN :

Register | Disclaimer

   EN    FR    IT 

 










Legend :    VFR   Marginal VFR   IFR   Intensive IFR   Very Intensive IFR
Visi :
Ceiling :
>= 8 km
>= 3000ft
5 to 8 km
1000 to 3000 ft
1500m to 5 km
500 to 1000 ft
800 to 1500m
200 to 500 ft
< 800m
< 200 ft
Symbols :   Thunderstorms  Fog  Heavy snow  Heavy precipitations  Wind > 20 kt
SIGMETs :     Misc.  Thunderstorms  Icing  Turbulence  Mountain Waves  Volcanic Ashes







- Airport Elevation : 468 ft
- IATA code : GRO


LEGE - Girona Costa Brava

CURRENT METAR :
  • 251700Z 18008KT 150V210 9999 SCT070 25/12 Q1016

EXPIRED METARs :
  • 251630Z 19009KT 150V220 9999 SCT070 26/13 Q1016
  • 251600Z 18009KT 150V210 9999 FEW060 26/12 Q1016
  • 251530Z 19011KT 9999 FEW060 27/12 Q1016
  • 251500Z 18011KT 150V210 9999 FEW060 27/12 Q1016
  • 251430Z 17011KT 140V210 9999 FEW030 27/12 Q1016

TAF TAF LEGE
Valid from the 25 at 18:00 until the 26 at 18:00 UTC


251700Z 2518/2618 18010KT 9999 FEW030 TX32/2613Z TN19/2606Z
BECMG 2518/2520 VRB03KT
BECMG 2610/2613 18010KT
No reported NOTAMs for that airfield.



MET'MAP, your aeronautical weather chart ! - Copyright ORBIFLY December 2007 - Disclaimer

ORBIFLY MET'MAP TEAM :

Programming & Development : Alexandra Zaïnal
Concept & Development : Baudouin d'Aumeries
Co-Development & Prog : Marc-Olivier Méhu
Technical & hardware support : Manuel Goepfert

Contact : metmap@orbifly.com




SOURCES & CREDITS :

   NOAA